Terminal Aerodrome Forecast
Issued by NWS

Home | Current Version | Previous Version | Graphics & Text | Print | Product List | Glossary On
Versions: 1 2 3 4 5 6 7 8 9 10 11 12 13 14 15 16
098
FTUS43 KGRB 282330
TAFATW
TAF
KATW 282330Z 2900/2924 19013G20KT P6SM SCT040 SCT070
     FM290100 19008KT P6SM SCT040 BKN070
      TEMPO 2901/2903 2SM TSRA BKN020CB OVC035
     FM290400 18007KT P6SM VCSH BKN040
     FM290600 19008KT P6SM BKN035
     FM291200 21008KT P6SM VCSH BKN006
     FM291500 22009KT P6SM -SHRA OVC011
     FM291900 25012KT P6SM VCSH BKN035
     FM292300 27010KT P6SM VCSH SCT045=

USA.gov is the U.S. government's official web portal to all federal, state and local government web resources and services.